Time;durP1;ratioP1;P1;durP2;ratioP2;P2;SDS_P1;SDS_P2;PMS_P1;PMS_P2;Temp;Humidity;BMP_temperature;BMP_pressure;BME280_temperature;BME280_humidity;BME280_pressure;Samples;Min_cycle;Max_cycle;Signal;HPM_P1;HPM_P2
2021/04/20 00:00:35;;;;;;;28.77;13.90;;;;;;;1.73;84.67;99213.88;5111707;28;20109;-84
2021/04/20 00:03:01;;;;;;;23.95;13.48;;;;;;;1.68;83.11;99213.38;5112280;28;20104;-84
2021/04/20 00:05:28;;;;;;;25.73;13.13;;;;;;;1.75;83.06;99203.84;5111523;28;20048;-84
2021/04/20 00:07:57;;;;;;;24.42;12.63;;;;;;;1.76;82.68;99197.53;5102454;28;20047;-85
2021/04/20 00:10:23;;;;;;;24.73;12.73;;;;;;;1.76;82.76;99218.97;5091869;28;20060;-85
2021/04/20 00:12:50;;;;;;;27.25;15.02;;;;;;;1.65;83.27;99205.59;5106232;28;20043;-85
2021/04/20 00:15:21;;;;;;;26.42;14.18;;;;;;;1.52;83.50;99204.91;5111197;28;20456;-84
2021/04/20 00:17:48;;;;;;;29.08;14.25;;;;;;;1.58;83.89;99194.53;5115386;28;20074;-84
2021/04/20 00:20:15;;;;;;;30.63;16.10;;;;;;;1.70;84.24;99208.75;5115352;28;20048;-84
2021/04/20 00:22:42;;;;;;;34.95;14.35;;;;;;;1.57;83.64;99202.72;5114759;28;20341;-84
2021/04/20 00:25:10;;;;;;;32.45;13.40;;;;;;;1.42;85.19;99199.47;5105689;27;20048;-84
2021/04/20 00:27:36;;;;;;;25.95;12.70;;;;;;;1.52;84.29;99203.09;5095254;28;20134;-83
2021/04/20 00:30:04;;;;;;;25.95;13.05;;;;;;;1.51;84.31;99203.22;5114337;28;20043;-84
2021/04/20 00:32:34;;;;;;;30.55;12.35;;;;;;;1.41;83.20;99182.50;5116281;28;20050;-84
2021/04/20 00:35:01;;;;;;;22.90;14.05;;;;;;;1.44;83.68;99181.41;5115144;28;20055;-84
2021/04/20 00:37:27;;;;;;;25.75;13.02;;;;;;;1.36;83.49;99165.13;5115233;28;20043;-84
2021/04/20 00:39:55;;;;;;;24.47;13.13;;;;;;;1.36;83.63;99176.69;5115315;27;20055;-84
2021/04/20 00:42:22;;;;;;;24.83;13.23;;;;;;;1.49;83.38;99189.94;5102903;27;20450;-84
2021/04/20 00:44:48;;;;;;;26.30;12.83;;;;;;;1.40;83.13;99186.19;5099234;28;20055;-84
2021/04/20 00:47:15;;;;;;;26.85;13.85;;;;;;;1.40;83.19;99186.19;5115255;27;20093;-84
2021/04/20 00:49:41;;;;;;;26.55;13.48;;;;;;;1.31;83.91;99165.53;5115843;27;20055;-84
2021/04/20 00:52:08;;;;;;;28.87;14.73;;;;;;;1.30;83.76;99173.69;5115168;28;20044;-84
2021/04/20 00:54:34;;;;;;;27.80;14.80;;;;;;;1.21;83.94;99168.09;5115179;28;20051;-84
2021/04/20 00:57:01;;;;;;;26.02;13.73;;;;;;;1.14;84.91;99174.06;5114866;28;20044;-84
2021/04/20 00:59:28;;;;;;;32.10;14.83;;;;;;;1.24;84.08;99167.84;5115665;28;20047;-84
2021/04/20 01:01:54;;;;;;;25.93;13.57;;;;;;;1.24;84.19;99170.50;5115412;28;20104;-84
2021/04/20 01:04:21;;;;;;;28.43;13.37;;;;;;;1.26;84.14;99178.41;5108310;28;20055;-83
2021/04/20 01:06:49;;;;;;;25.43;14.67;;;;;;;1.35;83.70;99179.50;5103480;28;20562;-84
2021/04/20 01:09:18;;;;;;;27.17;13.30;;;;;;;1.25;84.17;99179.41;5114573;28;20115;-83
2021/04/20 01:11:46;;;;;;;24.43;13.17;;;;;;;1.25;83.99;99179.41;5113555;28;20090;-84
2021/04/20 01:14:14;;;;;;;26.00;12.80;;;;;;;1.25;83.09;99176.75;5115125;28;20044;-84
2021/04/20 01:16:43;;;;;;;27.80;13.83;;;;;;;1.26;83.04;99183.78;5114529;28;20047;-84
2021/04/20 01:19:17;;;;;;;24.17;12.17;;;;;;;0.85;83.88;99158.53;5114616;27;20123;-84
2021/04/20 01:21:45;;;;;;;26.77;13.30;;;;;;;0.85;84.07;99164.72;5112691;27;20063;-84
2021/04/20 01:24:33;;;;;;;25.67;12.90;;;;;;;1.14;83.38;99176.75;5104235;28;20063;-84
2021/04/20 01:27:01;;;;;;;23.93;12.33;;;;;;;0.99;82.82;99168.13;5109917;27;20050;-84
2021/04/20 01:29:27;;;;;;;21.17;11.60;;;;;;;0.92;82.95;99178.50;5113957;28;20048;-84
2021/04/20 01:31:54;;;;;;;21.00;12.70;;;;;;;0.82;83.35;99169.50;5114838;28;20109;-84
2021/04/20 01:34:20;;;;;;;21.27;11.27;;;;;;;0.88;82.50;99179.69;5114167;28;20047;-84
2021/04/20 01:36:48;;;;;;;23.60;11.37;;;;;;;0.77;83.21;99168.97;5114613;28;20497;-84
2021/04/20 01:39:14;;;;;;;23.43;12.27;;;;;;;0.87;82.96;99167.28;5095313;27;20052;-84
2021/04/20 01:41:42;;;;;;;25.27;12.57;;;;;;;0.98;82.93;99177.13;5110727;28;20047;-84
2021/04/20 01:44:09;;;;;;;26.43;12.83;;;;;;;0.72;83.63;99166.69;5114513;28;20122;-83
2021/04/20 01:46:39;;;;;;;26.90;13.23;;;;;;;0.74;83.83;99169.22;5114702;28;20059;-83
2021/04/20 01:49:05;;;;;;;24.15;12.75;;;;;;;0.90;84.05;99177.75;5111916;28;20047;-83
2021/04/20 01:51:32;;;;;;;24.07;13.30;;;;;;;0.93;83.76;99169.47;5114765;28;20056;-84
2021/04/20 01:53:58;;;;;;;24.13;13.20;;;;;;;0.85;84.16;99164.72;5111985;28;20054;-84
2021/04/20 01:56:26;;;;;;;27.53;13.00;;;;;;;0.89;84.92;99176.06;5093374;28;20544;-84
2021/04/20 01:59:02;;;;;;;27.53;13.63;;;;;;;0.92;84.61;99165.09;5113126;28;20055;-84
2021/04/20 02:01:30;;;;;;;24.03;13.23;;;;;;;0.90;85.04;99164.34;5113933;28;20047;-83
2021/04/20 02:03:56;;;;;;;27.70;13.80;;;;;;;1.01;85.37;99168.84;5114154;28;20097;-84
2021/04/20 02:06:24;;;;;;;26.67;13.17;;;;;;;1.04;84.98;99165.94;5114353;28;20085;-83
2021/04/20 02:08:51;;;;;;;25.10;13.67;;;;;;;0.97;85.26;99157.53;5113609;27;20055;-84
2021/04/20 02:11:21;;;;;;;23.30;12.77;;;;;;;1.07;85.51;99176.41;5111011;28;20051;-83
2021/04/20 02:13:48;;;;;;;27.92;14.00;;;;;;;1.06;84.59;99167.50;5113544;28;20047;-83
2021/04/20 02:16:16;;;;;;;24.33;13.20;;;;;;;1.15;83.98;99176.63;5113667;28;20060;-84
2021/04/20 02:18:45;;;;;;;24.87;12.90;;;;;;;1.00;83.76;99168.00;5113688;28;20047;-84
2021/04/20 02:21:12;;;;;;;25.13;13.13;;;;;;;0.88;84.02;99161.81;5113181;28;20051;-84
2021/04/20 02:23:41;;;;;;;22.43;13.17;;;;;;;0.93;83.69;99172.13;5112720;28;20051;-84
2021/04/20 02:26:09;;;;;;;27.50;12.03;;;;;;;0.83;83.88;99177.41;5109227;28;20192;-83
2021/04/20 02:28:36;;;;;;;26.00;12.37;;;;;;;0.82;83.95;99164.13;5093598;28;20052;-84
2021/04/20 02:31:07;;;;;;;22.73;13.23;;;;;;;0.81;84.78;99168.66;5104447;28;20044;-83
2021/04/20 02:33:35;;;;;;;23.67;13.40;;;;;;;0.86;84.28;99185.19;5113728;27;20075;-84
2021/04/20 02:36:04;;;;;;;23.27;11.60;;;;;;;0.80;84.80;99182.13;5112767;28;20043;-84
2021/04/20 02:38:30;;;;;;;23.43;12.27;;;;;;;0.87;83.88;99169.97;5113139;28;20044;-84
2021/04/20 02:40:59;;;;;;;24.00;12.90;;;;;;;0.77;83.88;99155.59;5113252;28;20062;-84
2021/04/20 02:43:26;;;;;;;25.57;12.97;;;;;;;0.83;83.72;99164.00;5112967;28;20051;-84
2021/04/20 02:45:54;;;;;;;31.47;14.87;;;;;;;0.86;84.17;99176.31;5113185;28;20468;-84
2021/04/20 02:48:22;;;;;;;28.03;14.10;;;;;;;0.69;84.56;99165.13;5113225;28;20487;-84
2021/04/20 02:50:50;;;;;;;26.70;14.63;;;;;;;0.62;84.69;99173.75;5113010;28;20059;-84
2021/04/20 02:53:19;;;;;;;25.87;13.10;;;;;;;0.50;84.79;99165.72;5113122;28;20047;-84
2021/04/20 02:55:46;;;;;;;26.00;12.47;;;;;;;0.51;84.18;99159.41;5111782;28;20052;-84
2021/04/20 02:58:15;;;;;;;25.03;12.63;;;;;;;0.62;84.00;99158.53;5103852;28;20047;-84
2021/04/20 03:00:44;;;;;;;25.25;13.00;;;;;;;0.51;83.68;99167.44;5112175;28;20517;-84
2021/04/20 03:03:12;;;;;;;23.93;12.33;;;;;;;0.52;84.70;99177.13;5113252;28;20071;-84
2021/04/20 03:05:39;;;;;;;28.30;13.97;;;;;;;0.51;84.15;99166.56;5112572;28;20055;-84
2021/04/20 03:08:08;;;;;;;24.23;12.70;;;;;;;0.65;83.93;99155.63;5112917;28;20051;-84
2021/04/20 03:10:37;;;;;;;27.67;13.03;;;;;;;0.69;83.03;99156.22;5112589;28;20640;-84
2021/04/20 03:13:04;;;;;;;24.73;12.77;;;;;;;0.68;83.37;99167.91;5112718;28;20043;-84
2021/04/20 03:15:31;;;;;;;26.27;12.87;;;;;;;0.53;83.21;99156.59;5106454;28;20040;-84
2021/04/20 03:17:58;;;;;;;23.87;12.80;;;;;;;0.57;83.48;99168.75;5112565;27;20491;-83
2021/04/20 03:20:24;;;;;;;25.60;12.03;;;;;;;0.45;83.58;99148.31;5112369;28;20059;-84
2021/04/20 03:22:51;;;;;;;24.33;13.50;;;;;;;0.44;84.13;99170.72;5112134;27;20050;-83
2021/04/20 03:25:24;;;;;;;28.17;13.50;;;;;;;0.28;84.77;99145.13;5112280;28;20533;-83
2021/04/20 03:27:53;;;;;;;26.03;13.60;;;;;;;0.37;85.04;99166.81;5112646;28;20051;-83
2021/04/20 03:30:26;;;;;;;24.07;13.07;;;;;;;0.56;84.16;99161.72;5111403;28;20056;-83
2021/04/20 03:33:03;;;;;;;26.13;13.80;;;;;;;0.47;84.56;99155.25;5111806;28;20389;-83
2021/04/20 03:35:36;;;;;;;27.87;12.90;;;;;;;0.39;85.52;99146.13;5112135;28;20090;-83
2021/04/20 03:38:10;;;;;;;29.80;14.83;;;;;;;0.48;85.00;99143.59;5112402;28;20040;-84
2021/04/20 03:40:41;;;;;;;29.63;14.63;;;;;;;0.44;86.21;99141.28;5112504;28;20044;-84
2021/04/20 03:43:14;;;;;;;33.53;14.93;;;;;;;0.45;87.32;99149.19;5112397;28;20093;-85
2021/04/20 03:45:50;;;;;;;33.20;13.43;;;;;;;0.46;87.61;99139.31;5112658;28;20047;-85
2021/04/20 03:48:20;;;;;;;37.83;15.63;;;;;;;0.67;87.69;99156.34;5102427;28;20055;-84
2021/04/20 03:50:56;;;;;;;26.92;14.27;;;;;;;0.88;87.22;99137.72;5105597;28;20495;-84
2021/04/20 03:53:24;;;;;;;31.03;15.93;;;;;;;0.85;87.07;99126.41;5112313;28;20047;-83
2021/04/20 03:55:54;;;;;;;33.00;15.87;;;;;;;0.79;87.13;99135.78;5111823;28;20166;-84
2021/04/20 03:58:22;;;;;;;44.30;16.30;;;;;;;0.86;87.14;99130.81;5112245;28;20047;-84
2021/04/20 04:00:54;;;;;;;36.50;16.93;;;;;;;1.02;87.11;99141.97;5112459;28;20058;-84
2021/04/20 04:03:23;;;;;;;31.13;15.20;;;;;;;0.92;86.62;99135.66;5111126;28;20407;-84
2021/04/20 04:05:52;;;;;;;31.80;15.73;;;;;;;0.94;85.98;99144.41;5093640;28;20287;-84
2021/04/20 04:08:23;;;;;;;34.07;15.80;;;;;;;0.94;86.72;99148.91;5112278;28;20649;-85
2021/04/20 04:10:56;;;;;;;30.63;15.27;;;;;;;0.89;87.58;99141.25;5112257;28;20127;-84
2021/04/20 04:13:27;;;;;;;31.60;17.23;;;;;;;0.85;86.58;99129.94;5111965;28;20056;-84
2021/04/20 04:16:00;;;;;;;36.40;16.37;;;;;;;0.94;86.79;99154.28;5111646;28;20503;-83
2021/04/20 04:18:28;;;;;;;41.40;17.43;;;;;;;0.87;86.88;99153.91;5111953;28;20079;-85
2021/04/20 04:20:58;;;;;;;49.23;15.93;;;;;;;0.96;87.24;99169.22;5092860;28;20499;-84
2021/04/20 04:23:59;;;;;;;49.65;16.80;;;;;;;0.83;87.91;99147.13;5102710;28;20055;-83
2021/04/20 04:26:49;;;;;;;64.83;18.80;;;;;;;0.82;88.53;99140.03;5111625;28;20467;-83
2021/04/20 04:29:22;;;;;;;86.90;20.77;;;;;;;1.04;89.02;99157.91;5111659;28;20071;-84
2021/04/20 04:41:24;;;;;;;61.37;21.23;;;;;;;1.20;89.93;99160.19;5109326;28;20416;-84
2021/04/20 04:43:51;;;;;;;54.67;19.88;;;;;;;1.25;90.28;99168.69;5111517;28;20051;-83
2021/04/20 04:46:21;;;;;;;72.90;20.27;;;;;;;1.27;90.04;99153.34;5111187;28;20393;-84
2021/04/20 04:48:48;;;;;;;43.53;19.55;;;;;;;1.23;90.29;99159.91;5111848;28;20545;-83
2021/04/20 04:51:16;;;;;;;43.23;20.73;;;;;;;1.35;90.20;99164.28;5111476;28;20324;-84
2021/04/20 04:53:47;;;;;;;52.63;19.93;;;;;;;1.31;89.66;99138.72;5111684;28;20051;-83
2021/04/20 04:56:16;;;;;;;48.07;18.27;;;;;;;1.50;90.12;99167.50;5111329;28;20066;-83
2021/04/20 04:58:43;;;;;;;39.27;18.00;;;;;;;1.51;89.11;99145.09;5111364;28;20484;-83
2021/04/20 05:01:13;;;;;;;46.70;16.63;;;;;;;1.66;88.92;99167.09;5111005;28;20051;-83
2021/04/20 05:03:40;;;;;;;64.87;18.50;;;;;;;1.50;89.20;99146.06;5116944;28;20131;-84
2021/04/20 05:06:12;;;;;;;59.60;18.83;;;;;;;1.41;90.01;99161.06;5115640;27;20054;-84
2021/04/20 05:08:39;;;;;;;70.40;17.43;;;;;;;1.49;90.11;99171.19;5115394;28;20294;-84
2021/04/20 05:11:07;;;;;;;61.87;18.90;;;;;;;1.44;90.51;99159.16;5097077;28;20127;-84
2021/04/20 05:13:35;;;;;;;50.30;19.87;;;;;;;1.59;89.97;99166.75;5112280;28;20051;-84
2021/04/20 05:16:06;;;;;;;39.83;17.80;;;;;;;1.65;90.17;99176.09;5114135;28;20277;-84
2021/04/20 05:18:35;;;;;;;43.92;18.17;;;;;;;1.59;90.34;99158.69;5114911;28;20043;-84
2021/04/20 05:21:02;;;;;;;40.77;19.13;;;;;;;1.82;90.28;99181.91;5101743;28;20063;-84
2021/04/20 05:23:28;;;;;;;57.72;18.55;;;;;;;1.75;89.92;99160.97;5106041;28;20044;-84
2021/04/20 05:25:54;;;;;;;64.70;18.60;;;;;;;1.89;90.16;99167.84;5113844;28;20486;-84
2021/04/20 05:28:21;;;;;;;83.88;20.95;;;;;;;1.94;89.96;99162.97;5115122;28;20052;-83
2021/04/20 05:30:48;;;;;;;64.32;18.95;;;;;;;1.92;89.85;99162.22;5115019;28;20047;-84
2021/04/20 05:33:18;;;;;;;43.58;19.13;;;;;;;2.06;89.77;99179.84;5114545;28;20475;-82
2021/04/20 05:35:45;;;;;;;71.30;23.90;;;;;;;2.12;89.61;99179.31;5114043;27;20083;-81
2021/04/20 05:38:13;;;;;;;70.20;19.17;;;;;;;2.18;89.89;99177.09;5099581;27;20048;-80
2021/04/20 05:40:46;;;;;;;50.15;21.02;;;;;;;2.21;89.72;99158.88;5093260;28;20131;-83
2021/04/20 05:43:12;;;;;;;59.35;19.98;;;;;;;2.19;89.90;99152.81;5094216;28;20092;-83
2021/04/20 05:45:39;;;;;;;70.03;21.23;;;;;;;2.12;89.73;99171.28;5093368;28;20411;-82
2021/04/20 05:48:06;;;;;;;78.47;21.42;;;;;;;2.44;89.24;99156.06;5094375;28;20051;-82
2021/04/20 05:50:32;;;;;;;52.92;20.25;;;;;;;2.59;89.13;99165.47;5094049;28;20101;-82
2021/04/20 05:53:00;;;;;;;83.18;21.48;;;;;;;2.67;89.33;99153.22;5093855;28;20534;-82
2021/04/20 05:55:27;;;;;;;89.05;20.55;;;;;;;2.60;89.32;99151.03;5085282;28;20036;-82
2021/04/20 05:57:55;;;;;;;87.00;20.25;;;;;;;2.72;89.77;99154.47;5093606;28;20047;-82
2021/04/20 06:00:23;;;;;;;78.68;20.85;;;;;;;2.89;89.58;99158.38;5094167;28;20052;-82
2021/04/20 06:02:51;;;;;;;85.38;18.08;;;;;;;2.96;89.82;99166.72;5093853;28;20427;-82
2021/04/20 06:05:21;;;;;;;132.15;19.05;;;;;;;3.05;90.71;99157.84;5094028;28;20446;-82
2021/04/20 06:07:51;;;;;;;130.18;20.42;;;;;;;3.21;90.30;99160.03;5093390;28;20086;-82
2021/04/20 06:10:18;;;;;;;108.55;17.38;;;;;;;3.31;90.15;99160.91;5093666;28;20044;-82
2021/04/20 06:12:47;;;;;;;91.72;18.13;;;;;;;3.30;89.09;99158.34;5093234;28;20048;-82
2021/04/20 06:15:15;;;;;;;94.85;17.80;;;;;;;3.26;89.48;99154.25;5092544;28;20052;-82
2021/04/20 06:17:42;;;;;;;88.40;19.63;;;;;;;3.42;89.69;99173.38;5092811;28;20154;-82
2021/04/20 06:20:11;;;;;;;61.00;17.55;;;;;;;3.50;88.93;99152.00;5093468;28;20039;-82
2021/04/20 06:22:41;;;;;;;84.05;16.35;;;;;;;3.70;88.43;99179.78;5093333;28;20082;-82
2021/04/20 06:25:11;;;;;;;54.30;16.55;;;;;;;3.65;88.04;99163.19;5092245;28;20056;-82
2021/04/20 06:27:41;;;;;;;60.17;15.60;;;;;;;3.57;88.56;99172.94;5092686;28;20113;-82
2021/04/20 06:30:37;;;;;;;65.80;17.48;;;;;;;3.86;87.44;99189.09;5073437;28;20056;-82
2021/04/20 06:33:05;;;;;;;65.55;15.45;;;;;;;3.64;88.60;99174.94;5075872;28;20130;-82
2021/04/20 06:35:32;;;;;;;82.07;16.77;;;;;;;3.86;88.20;99159.53;5092862;28;20060;-81
2021/04/20 06:38:01;;;;;;;70.53;17.17;;;;;;;4.10;86.84;99175.22;5092582;28;20055;-81
2021/04/20 06:40:36;;;;;;;62.67;17.88;;;;;;;4.19;86.72;99177.03;5093985;28;20298;-81
2021/04/20 06:43:06;;;;;;;58.35;16.65;;;;;;;4.29;86.61;99192.31;5093005;28;20055;-81
2021/04/20 06:45:35;;;;;;;;;;;;;;;4.46;87.48;99182.66;5098227;28;20051;-81
2021/04/20 06:48:10;;;;;;;52.60;15.15;;;;;;;4.25;86.86;99173.78;5113010;28;19958;-82
2021/04/20 06:50:40;;;;;;;56.13;15.50;;;;;;;4.52;87.02;99166.78;5113122;28;20209;-82
2021/04/20 06:53:13;;;;;;;33.92;16.52;;;;;;;4.60;87.36;99169.56;5113030;28;20139;-82
2021/04/20 06:55:47;;;;;;;57.67;14.77;;;;;;;4.59;86.73;99184.06;5112763;28;20062;-82
2021/04/20 06:58:22;;;;;;;42.55;16.52;;;;;;;4.47;86.63;99152.94;5112637;28;20415;-82
2021/04/20 07:00:53;;;;;;;40.35;16.08;;;;;;;4.64;87.87;99169.28;5112461;28;20061;-82
2021/04/20 07:03:27;;;;;;;37.63;16.25;;;;;;;4.84;87.65;99151.22;5111535;28;20059;-82
2021/04/20 07:06:03;;;;;;;51.88;15.75;;;;;;;4.78;85.52;99168.81;5112055;28;20047;-80
2021/04/20 07:08:38;;;;;;;42.92;16.55;;;;;;;4.64;86.22;99178.22;5113263;28;20056;-84
2021/04/20 07:11:12;;;;;;;43.78;15.10;;;;;;;4.64;86.67;99180.06;5114834;28;20109;-84
2021/04/20 07:13:45;;;;;;;68.97;16.10;;;;;;;4.77;85.86;99154.50;5114553;28;20096;-83
2021/04/20 07:16:52;;;;;;;33.85;14.20;;;;;;;4.81;85.93;99170.38;5114459;28;20067;-83
2021/04/20 07:19:48;;;;;;;37.15;17.85;;;;;;;4.98;86.77;99158.81;5114233;27;20062;-83
2021/04/20 07:23:09;;;;;;;39.90;16.65;;;;;;;4.96;85.95;99171.59;5112274;28;20047;-83
2021/04/20 07:25:58;;;;;;;41.20;15.30;;;;;;;5.05;86.15;99177.94;5110041;28;20061;-83
2021/04/20 07:28:37;;;;;;;46.13;15.02;;;;;;;4.90;87.05;99161.41;5112469;28;20055;-84
2021/04/20 07:31:10;;;;;;;47.65;16.77;;;;;;;4.91;87.33;99179.28;5112590;28;20052;-83
2021/04/20 07:34:00;;;;;;;34.50;16.73;;;;;;;4.99;87.00;99151.59;5103533;28;20051;-83
2021/04/20 07:37:08;;;;;;;39.40;19.15;;;;;;;5.42;86.67;99169.78;5091792;28;20076;-83
2021/04/20 07:39:49;;;;;;;55.42;19.90;;;;;;;5.67;85.60;99172.72;5102112;28;20139;-82
2021/04/20 07:42:55;;;;;;;38.40;16.98;;;;;;;6.00;83.97;99173.06;5112254;28;20108;-83
2021/04/20 07:45:56;;;;;;;31.17;16.58;;;;;;;5.85;83.84;99178.97;5093352;28;20090;-84
2021/04/20 07:49:24;;;;;;;;;;;;;;;;;;;;;
2021/04/20 07:55:38;;;;;;;36.65;19.40;;;;;;;6.67;83.30;99148.22;5064715;28;20063;-84
2021/04/20 07:58:26;;;;;;;32.35;16.55;;;;;;;6.47;82.18;99156.53;5091848;28;20044;-84
2021/04/20 08:01:07;;;;;;;31.63;17.50;;;;;;;6.42;82.81;99149.94;5091050;28;20484;-84
2021/04/20 08:03:43;;;;;;;32.83;16.23;;;;;;;6.64;83.08;99146.69;5092143;28;20048;-84
2021/04/20 08:06:17;;;;;;;37.03;16.58;;;;;;;6.57;82.54;99156.44;5091497;28;20048;-84
2021/04/20 08:08:51;;;;;;;40.63;17.05;;;;;;;6.72;82.32;99144.03;5091926;28;20450;-84
2021/04/20 08:11:23;;;;;;;37.15;17.08;;;;;;;7.18;80.70;99159.97;5097958;28;20108;-83
2021/04/20 08:14:03;;;;;;;35.85;18.70;;;;;;;7.08;80.43;99151.97;5111919;28;20059;-84
2021/04/20 08:16:42;;;;;;;;;;;;;;;7.59;80.62;99160.06;5112102;28;20047;-84
2021/04/20 08:19:19;;;;;;;36.17;18.58;;;;;;;7.73;78.91;99163.16;5111999;28;19927;-84
2021/04/20 08:21:50;;;;;;;33.55;18.95;;;;;;;7.76;79.02;99158.25;5111267;28;20126;-83
2021/04/20 08:24:22;;;;;;;39.60;21.13;;;;;;;8.26;77.42;99172.63;5112031;28;20403;-84
2021/04/20 08:26:56;;;;;;;38.85;19.92;;;;;;;8.17;77.92;99156.56;5111994;28;20479;-84
2021/04/20 08:29:32;;;;;;;33.63;18.42;;;;;;;8.34;77.20;99163.69;5101397;28;20424;-84
2021/04/20 08:32:07;;;;;;;41.60;19.45;;;;;;;8.24;76.82;99152.19;5090913;28;20048;-84
2021/04/20 08:34:53;;;;;;;37.53;21.30;;;;;;;8.03;77.47;99134.56;5091279;28;20068;-84
2021/04/20 08:37:33;;;;;;;34.40;19.35;;;;;;;8.01;78.51;99150.16;5110818;28;20120;-84
2021/04/20 08:40:17;;;;;;;36.22;20.40;;;;;;;8.11;78.64;99131.88;5110174;28;20048;-84
2021/04/20 08:42:48;;;;;;;28.63;17.42;;;;;;;8.19;77.62;99135.59;5095812;28;20048;-84
2021/04/20 08:45:32;;;;;;;30.73;18.35;;;;;;;8.39;77.51;99133.38;5095163;28;20054;-84
2021/04/20 08:58:04;;;;;;;40.88;22.42;;;;;;;9.18;74.15;99122.63;5094843;28;20062;-84
2021/04/20 09:00:46;;;;;;;36.88;20.77;;;;;;;9.57;73.02;99133.47;5095055;28;20518;-84
2021/04/20 09:03:26;;;;;;;40.10;21.85;;;;;;;9.62;73.38;99113.06;5094604;28;20055;-84
2021/04/20 09:06:00;;;;;;;39.72;21.02;;;;;;;9.89;74.03;99131.53;5094728;28;20090;-84
2021/04/20 09:08:37;;;;;;;40.30;22.63;;;;;;;10.33;73.01;99131.84;5094963;28;20385;-84
2021/04/20 09:11:09;;;;;;;37.28;21.38;;;;;;;10.13;70.86;99131.53;5094704;28;20056;-84
2021/04/20 09:13:50;;;;;;;40.30;19.83;;;;;;;10.31;71.69;99125.75;5094654;28;20055;-84
2021/04/20 09:16:26;;;;;;;36.30;19.38;;;;;;;9.90;71.56;99122.34;5094329;28;20048;-84
2021/04/20 09:18:53;;;;;;;31.10;19.65;;;;;;;10.07;71.91;99116.78;5098906;28;20502;-85
2021/04/20 09:22:10;;;;;;;33.47;19.02;;;;;;;10.55;68.94;99131.00;5105846;28;20051;-84
2021/04/20 09:24:43;;;;;;;34.67;18.65;;;;;;;10.75;67.70;99114.97;5114486;28;20600;-84
2021/04/20 09:27:16;;;;;;;33.60;19.58;;;;;;;10.81;66.73;99113.38;5115013;28;20390;-84
2021/04/20 09:29:55;;;;;;;30.85;18.10;;;;;;;10.80;66.43;99104.38;5114942;28;20060;-84
2021/04/20 09:32:23;;;;;;;31.27;20.02;;;;;;;11.08;66.55;99113.72;5114173;28;20490;-84
2021/04/20 09:34:53;;;;;;;36.88;19.08;;;;;;;10.89;65.70;99107.00;5114579;28;20058;-84
2021/04/20 09:37:21;;;;;;;28.95;18.58;;;;;;;11.24;64.75;99110.78;5110402;28;20380;-84
2021/04/20 09:39:51;;;;;;;28.40;17.60;;;;;;;11.10;64.75;99095.34;5102535;28;20389;-85
2021/04/20 09:42:19;;;;;;;32.78;18.73;;;;;;;11.25;64.95;99098.06;5105375;28;20070;-85
2021/04/20 09:44:59;;;;;;;30.60;17.70;;;;;;;11.45;64.54;99103.72;5104473;28;20051;-84
2021/04/20 09:47:59;;;;;;;24.83;14.73;;;;;;;11.58;63.80;99081.25;5113323;28;20405;-85
2021/04/20 09:50:31;;;;;;;;;;;;;;;11.75;63.25;99100.91;5114745;28;20043;-84
2021/04/20 09:53:54;;;;;;;31.02;18.02;;;;;;;11.91;62.70;99105.22;5101632;27;20364;-84
2021/04/20 09:56:27;;;;;;;27.83;16.17;;;;;;;11.85;62.87;99087.81;5057584;28;20082;-84
2021/04/20 09:58:56;;;;;;;30.33;17.15;;;;;;;11.70;61.98;99090.59;5062599;28;20475;-84
2021/04/20 10:01:47;;;;;;;29.02;16.35;;;;;;;11.90;61.22;99107.13;5093640;27;20105;-83
2021/04/20 10:04:27;;;;;;;27.92;16.88;;;;;;;11.79;61.66;99103.03;5112665;28;20078;-84
2021/04/20 10:07:09;;;;;;;33.17;17.08;;;;;;;12.27;61.09;99107.91;5108643;28;20491;-84
2021/04/20 10:09:43;;;;;;;25.75;16.15;;;;;;;12.43;60.72;99086.84;5111839;28;20155;-84
2021/04/20 10:12:23;;;;;;;31.48;16.88;;;;;;;12.29;59.71;99077.72;5112500;28;20063;-84
2021/04/20 10:14:54;;;;;;;;;;;;;;;12.35;59.82;99104.19;5113156;28;20483;-84
2021/04/20 10:17:28;;;;;;;28.67;16.35;;;;;;;12.44;59.94;99102.16;5113869;28;19926;-84
2021/04/20 10:20:07;;;;;;;27.88;15.80;;;;;;;12.68;59.55;99088.03;5110958;28;20051;-84
2021/04/20 10:22:42;;;;;;;28.15;15.05;;;;;;;12.92;55.55;99074.97;5106601;28;20373;-85
2021/04/20 10:25:14;;;;;;;29.65;14.88;;;;;;;12.98;55.57;99085.06;5110872;28;20094;-84
2021/04/20 10:27:44;;;;;;;25.00;14.43;;;;;;;12.91;56.31;99076.00;5105743;28;20052;-84
2021/04/20 10:30:15;;;;;;;24.07;14.90;;;;;;;12.74;56.11;99079.06;5106195;28;20062;-84
2021/04/20 10:32:50;;;;;;;30.17;15.32;;;;;;;12.68;56.73;99085.31;5108229;28;20388;-84
2021/04/20 10:35:20;;;;;;;26.70;14.38;;;;;;;12.77;56.96;99072.38;5112916;28;20048;-84
2021/04/20 10:37:50;;;;;;;22.77;12.70;;;;;;;13.08;54.51;99076.50;5112743;28;20040;-84
2021/04/20 10:40:23;;;;;;;23.20;13.77;;;;;;;13.33;54.83;99073.25;5095493;28;20048;-85
2021/04/20 10:42:50;;;;;;;21.80;12.57;;;;;;;13.62;53.76;99064.75;5111886;28;20035;-85
2021/04/20 10:45:18;;;;;;;23.70;13.65;;;;;;;13.92;51.37;99068.97;5092840;28;20101;-85
2021/04/20 10:47:51;;;;;;;24.60;14.02;;;;;;;14.08;51.37;99056.78;5101529;28;20044;-85
2021/04/20 10:50:22;;;;;;;25.00;12.93;;;;;;;13.72;52.12;99067.06;5112912;28;20121;-84
2021/04/20 10:52:53;;;;;;;25.02;14.25;;;;;;;13.57;51.68;99044.56;5107637;28;20484;-85
2021/04/20 10:55:20;;;;;;;27.25;15.13;;;;;;;13.83;51.90;99062.03;5105243;28;20062;-84
2021/04/20 10:57:48;;;;;;;22.85;13.68;;;;;;;14.34;51.50;99047.72;5112629;28;20544;-83
2021/04/20 11:00:16;;;;;;;24.67;14.02;;;;;;;14.38;50.71;99054.47;5112377;28;20047;-85
2021/04/20 11:02:48;;;;;;;20.70;13.63;;;;;;;14.58;50.05;99035.25;5111898;28;20411;-84
2021/04/20 11:05:21;;;;;;;26.45;14.07;;;;;;;14.48;48.86;99035.72;5112134;28;20063;-84
2021/04/20 11:07:54;;;;;;;19.60;12.52;;;;;;;14.25;49.72;99049.81;5111488;28;20099;-84
2021/04/20 11:10:35;;;;;;;21.77;13.48;;;;;;;14.00;50.90;99052.38;5092253;28;20055;-84
2021/04/20 11:13:05;;;;;;;20.83;12.30;;;;;;;13.57;51.41;99045.38;5092347;28;20071;-84
2021/04/20 11:15:31;;;;;;;19.33;12.07;;;;;;;14.26;49.18;99040.59;5091652;28;20139;-84
2021/04/20 11:18:06;;;;;;;21.23;12.40;;;;;;;14.86;47.78;99029.53;5097193;28;20475;-84
2021/04/20 11:20:42;;;;;;;15.43;10.18;;;;;;;14.85;48.00;99021.53;5110226;28;20051;-85
2021/04/20 11:23:17;;;;;;;20.27;10.32;;;;;;;15.21;46.42;99017.38;5112741;28;20104;-84
2021/04/20 11:25:49;;;;;;;14.63;9.38;;;;;;;15.03;46.52;99026.31;5110948;27;20449;-83
2021/04/20 11:28:21;;;;;;;18.17;10.82;;;;;;;15.38;47.39;99023.19;5091537;28;20504;-84
2021/04/20 11:30:57;;;;;;;18.13;11.27;;;;;;;15.54;46.57;99010.88;5099325;28;20048;-84
2021/04/20 11:33:32;;;;;;;19.55;11.93;;;;;;;15.88;46.92;99009.59;5112497;28;20055;-84
2021/04/20 11:36:02;;;;;;;16.17;10.90;;;;;;;15.68;46.74;99028.06;5111973;28;20039;-84
2021/04/20 11:38:38;;;;;;;17.65;12.10;;;;;;;15.43;45.52;98990.50;5110174;28;20054;-84
2021/04/20 11:43:55;;;;;;;23.75;13.43;;;;;;;15.49;48.39;98996.97;5101147;28;20055;-84
2021/04/20 11:46:33;;;;;;;27.50;15.10;;;;;;;15.75;47.29;99015.97;5093255;28;20071;-83
2021/04/20 11:49:12;;;;;;;23.02;14.73;;;;;;;15.91;47.45;99000.94;5112188;28;20085;-82
2021/04/20 11:51:41;;;;;;;23.45;13.80;;;;;;;15.37;47.71;99007.78;5112006;28;20460;-83
2021/04/20 11:54:10;;;;;;;30.00;14.77;;;;;;;14.99;47.98;99008.63;5110694;28;20047;-83
2021/04/20 11:56:37;;;;;;;23.60;13.90;;;;;;;14.90;48.93;99002.56;5111297;28;20055;-84
2021/04/20 11:59:04;;;;;;;20.65;12.70;;;;;;;15.18;47.70;98985.78;5121100;28;20043;-84
2021/04/20 12:01:33;;;;;;;20.33;12.50;;;;;;;15.09;48.68;98995.31;5132407;27;20043;-84
2021/04/20 12:04:03;;;;;;;22.45;14.07;;;;;;;14.65;48.76;98983.31;5119915;28;20040;-84
2021/04/20 12:06:43;;;;;;;23.40;12.88;;;;;;;14.45;49.46;98995.13;5094450;28;20048;-84
2021/04/20 12:09:14;;;;;;;20.80;12.85;;;;;;;14.33;49.12;98989.47;5097561;28;20487;-84
2021/04/20 12:11:43;;;;;;;20.73;12.10;;;;;;;14.32;49.42;98989.69;5112500;28;20051;-84
2021/04/20 12:14:11;;;;;;;18.20;11.50;;;;;;;14.63;49.12;98986.25;5114897;28;20051;-84
2021/04/20 12:16:38;;;;;;;23.60;13.25;;;;;;;14.66;47.44;98987.72;5116065;28;20139;-84